Wetterdaten: aktuell Montag, 27.01.2020 16:50
Datum Zeit Temperatur Bodentemp. Luftfeuchte Luftdruck Niederschlag Windgeschw. Windrichtung Windrichtung Sonnenschein Nieder.dauer Evapotrans. Solarstrahl. Taupunkt Windchill Windböen
27.01.2020 16:50 7,0 °C 6,1 °C 100 % 1002,4 hPa 0,0 l/m² 0,0 km/h (0 Bft) S-SO 157 ° 0 min 0 min 0 mm 0 W/m² 7,0 °C 7,0 °C 3,6 km/h (1 Bft)
27.01.2020 15:50 7,1 °C 6,7 °C 100 % 1003,0 hPa 0,0 l/m² 0,0 km/h (0 Bft) S-SW 202 ° 0 min 0 min 0 mm 18 W/m² 7,1 °C 7,1 °C 7,2 km/h (2 Bft)
27.01.2020 14:50 7,1 °C 6,7 °C 100 % 1003,5 hPa 0,0 l/m² 0,0 km/h (0 Bft) SW 225 ° 0 min 0 min 0 mm 21 W/m² 7,1 °C 7,1 °C 3,6 km/h (1 Bft)
27.01.2020 13:50 6,9 °C 6,7 °C 100 % 1004,1 hPa 0,0 l/m² 7,2 km/h (2 Bft) S-SW 202 ° 0 min 0 min 0 mm 39 W/m² 6,9 °C 6,2 °C 19,7 km/h (3 Bft)
27.01.2020 12:50 6,7 °C 6,1 °C 100 % 1004,6 hPa 0,0 l/m² 1,8 km/h (1 Bft) S 180 ° 0 min 0 min 0 mm 47 W/m² 6,7 °C 6,7 °C 3,6 km/h (1 Bft)
27.01.2020 11:50 6,3 °C 6,1 °C 100 % 1005,2 hPa 0,0 l/m² 5,4 km/h (1 Bft) SW 225 ° 0 min 0 min 0 mm 30 W/m² 6,3 °C 6,3 °C 14,4 km/h (3 Bft)
27.01.2020 10:50 5,8 °C 5,6 °C 100 % 1005,4 hPa 0,0 l/m² 7,2 km/h (2 Bft) SW 225 ° 0 min 9 min 0 mm 28 W/m² 5,8 °C 5,1 °C 12,6 km/h (3 Bft)
27.01.2020 09:50 5,5 °C 5,0 °C 100 % 1005,7 hPa 0,2 l/m² 7,2 km/h (2 Bft) S 180 ° 0 min 60 min 0 mm 18 W/m² 5,5 °C 4,8 °C 16,1 km/h (3 Bft)
27.01.2020 08:50 5,2 °C 4,4 °C 100 % 1005,9 hPa 0,2 l/m² 9,0 km/h (2 Bft) S-SW 202 ° 0 min 60 min 0 mm 9 W/m² 5,2 °C 3,0 °C 14,4 km/h (3 Bft)
27.01.2020 07:50 4,7 °C 4,4 °C 100 % 1006,2 hPa 0,6 l/m² 3,6 km/h (1 Bft) S-SW 202 ° 0 min 60 min 0 mm 0 W/m² 4,7 °C 4,7 °C 9,0 km/h (2 Bft)
27.01.2020 06:50 4,4 °C 3,9 °C 99 % 1006,7 hPa 0,2 l/m² 9,0 km/h (2 Bft) S 180 ° 0 min 47 min 0 mm 0 W/m² 4,3 °C 2,2 °C 16,1 km/h (3 Bft)
27.01.2020 05:50 4,2 °C 3,3 °C 99 % 1007,3 hPa 0,2 l/m² 3,6 km/h (1 Bft) S 180 ° 0 min 38 min 0 mm 0 W/m² 4,1 °C 4,2 °C 10,8 km/h (2 Bft)
27.01.2020 04:50 3,7 °C 3,3 °C 99 % 1008,2 hPa 0,0 l/m² 5,4 km/h (1 Bft) S 180 ° 0 min 0 min 0 mm 0 W/m² 3,6 °C 3,7 °C 12,6 km/h (3 Bft)
27.01.2020 03:50 3,8 °C 3,3 °C 99 % 1008,9 hPa 0,0 l/m² 1,8 km/h (1 Bft) S 180 ° 0 min 0 min 0 mm 0 W/m² 3,7 °C 3,8 °C 5,4 km/h (1 Bft)
27.01.2020 02:50 3,4 °C 3,3 °C 100 % 1009,8 hPa 0,0 l/m² 1,8 km/h (1 Bft) S-SW 202 ° 0 min 1 min 0 mm 0 W/m² 3,4 °C 3,4 °C 7,2 km/h (2 Bft)
27.01.2020 01:50 3,1 °C 2,8 °C 100 % 1010,3 hPa 0,0 l/m² 3,6 km/h (1 Bft) S-SO 157 ° 0 min 0 min 0 mm 0 W/m² 3,1 °C 3,1 °C 16,1 km/h (3 Bft)
27.01.2020 00:50 2,5 °C 2,8 °C 100 % 1010,9 hPa 0,0 l/m² 0,0 km/h (0 Bft) N 0 ° 0 min 0 min 0 mm 0 W/m² 2,5 °C 2,5 °C 0,0 km/h (0 Bft)
26.01.2020 23:50 2,2 °C 1,7 °C 99 % 1011,5 hPa 0,0 l/m² 0,0 km/h (0 Bft) N 0 ° 0 min 0 min 0 mm 0 W/m² 2,1 °C 2,2 °C 0,0 km/h (0 Bft)
26.01.2020 22:50 2,9 °C 2,2 °C 99 % 1012,0 hPa 0,0 l/m² 0,0 km/h (0 Bft) N 0 ° 0 min 0 min 0 mm 0 W/m² 2,8 °C 2,9 °C 0,0 km/h (0 Bft)
26.01.2020 21:50 2,7 °C 2,2 °C 99 % 1012,5 hPa 0,0 l/m² 0,0 km/h (0 Bft) N 0 ° 0 min 0 min 0 mm 0 W/m² 2,6 °C 2,7 °C 0,0 km/h (0 Bft)
26.01.2020 20:50 2,6 °C 2,2 °C 98 % 1012,6 hPa 0,0 l/m² 0,0 km/h (0 Bft) S 180 ° 0 min 0 min 0 mm 0 W/m² 2,3 °C 2,6 °C 1,8 km/h (1 Bft)
26.01.2020 19:50 2,4 °C 2,2 °C 98 % 1013,0 hPa 0,0 l/m² 0,0 km/h (0 Bft) N 0 ° 0 min 0 min 0 mm 0 W/m² 2,1 °C 2,4 °C 0,0 km/h (0 Bft)
26.01.2020 18:50 2,2 °C 2,2 °C 97 % 1013,4 hPa 0,0 l/m² 0,0 km/h (0 Bft) N 0 ° 0 min 0 min 0 mm 0 W/m² 1,8 °C 2,2 °C 0,0 km/h (0 Bft)
26.01.2020 17:50 2,2 °C 1,7 °C 97 % 1013,4 hPa 0,0 l/m² 3,6 km/h (1 Bft) S 180 ° 0 min 0 min 0 mm 0 W/m² 1,8 °C 2,2 °C 10,8 km/h (2 Bft)
26.01.2020 17:00 2,3 °C 2,2 °C 96 % 1013,7 hPa 0,0 l/m² 0,0 km/h (0 Bft) N 0 ° 0 min 0 min 0 mm 0 W/m² 1,7 °C 2,3 °C 0,0 km/h (0 Bft)
_ Min-Zeit 17:14 23:25 17:00 16:45 - 17:00 - - - - - - 17:14 03:06 17:00
Minimum _ 2,2 °C 1,1 °C 96 % 1002,4 hPa - 0,0 km/h (0 Bft) - - - - - - 1,6 °C -0,2 °C 0,0 km/h (0 Bft)
_ Max-Zeit 14:15 13:17 00:36 17:00 05:27 10:55 - - 17:00 02:04 12:00 11:38 14:15 14:15 10:24
Maximum _ 7,1 °C 6,7 °C 100 % 1013,7 hPa 0,2 l/m² 14,4 km/h
SW (3 Bft)
- - 0 min 1 min 0 mm 95 W/m² 7,1 °C 7,1 °C 26,9 km/h
SW (4 Bft)
Durchschnitt _ 4,1 °C 3,7 °C 99 % 1008,8 hPa #1,4 l/m² 2,3 km/h (1 Bft) S-SW - #0 min. #4:35 h #0,075 mm 28 W/m² 4,0 °C 4,0 °C 7,0 km/h (2 Bft)